x

Western Caribbean - 195 Nm Wsw Of Negril Jamiaca (42057) Wave Buoy

9:50am - Wed 27th Aug 2014 All times are UTC.

  • Sig Wave height 1.3ft
  • Swell Direction
  • Peak Period 7s
  • Average Period 5s
  • Wind
    11mph
  • Sea Temp 84°f
  • Air Temp 83°f
  • Sea Pressure 1011.2mb

More Historic Weather Station data

Upgrade to MSW Pro to gain access to the past 30 days of data for over 8000 Wavebouys and Weather Stations around the globe.

Join Pro

Comparision Forecast

View Surf forecast
   
Wed 08/27 9:50am 1.3ft 7s 5s 11
mph
1011.2mb 84f 83f
8:50am 1.3ft 8s 4s 9 11 mph 1010.7mb 85f 83f
7:50am 1ft 8s 4s 7 9 mph 1010.9mb 85f 83f
6:50am 1ft 7s 5s 7 9 mph 1011.3mb 85f 83f
5:50am 1ft 7s 5s 9
mph
1011.9mb 85f 83f
4:50am 1ft 7s 5s 11 13 mph 1012.3mb 84f 83f
3:50am 1ft 8s 5s 9 11 mph 1012.5mb 85f 83f
2:50am 1ft 8s 5s 7
mph
1012.4mb 86f 84f
1:50am 1.3ft 7s 5s 7
mph
1011.9mb 85f 84f
12:50am 1.3ft 8s 5s 2 4 mph 1011.3mb 86f 84f
Tue 08/26 11:50pm 1.3ft 7s 5s 2
mph
1010.5mb 86f 84f
10:50pm 1.3ft 8s 5s  -  2 mph 1010.5mb 86f 85f
9:50pm 1.3ft 8s 5s 2 4 mph 1009.8mb 87f 85f
8:50pm 1.3ft 8s 5s 4 7 mph 1009.8mb 87f 85f
7:50pm 1.3ft 8s 5s 4 7 mph 1010.2mb 86f 84f
6:50pm 1.3ft 8s 5s 4 7 mph 1010.6mb 86f 84f
5:50pm 1.3ft 8s 5s 7 9 mph 1011.1mb 86f 83f
4:50pm 1.3ft 8s 5s 4 7 mph 1011.5mb 86f 84f
3:50pm 1.3ft 8s 5s 4 7 mph 1011.5mb 86f 84f
2:50pm 1.3ft 8s 5s 4
mph
1011.2mb 85f 83f
1:50pm 1.3ft 7s 6s 4
mph
1010.6mb 84f 83f
12:50pm 1.3ft 8s 5s 7
mph
1010.1mb 84f 83f
11:50am 1ft 8s 5s 7
mph
1009.5mb 84f 83f
10:50am 1ft 8s 5s 4 7 mph 1009.1mb 84f 83f
9:50am 1ft 8s 5s 4 7 mph 1008.6mb 84f 83f
8:50am 1ft 8s 5s 4
mph
1008.3mb 84f 83f
7:50am 1ft 8s 5s 2 4 mph 1008.6mb 84f 83f
6:50am 1ft 5s 4s 2
mph
1009mb 84f 83f
5:50am 1ft 4s 4s  -  2 mph 1009.7mb 84f 83f
4:50am 1ft 4s 4s  -  2 mph 1010.1mb 85f 83f
3:50am 1ft 4s 4s 2
mph
1010.1mb 85f 84f
2:50am 1ft 5s 4s 2
mph
1009.8mb 85f 84f
1:50am 1.3ft 4s 4s 2 4 mph 1008.9mb 85f 84f
12:50am 1.3ft 5s 4s 4
mph
1008.4mb 85f 84f
Mon 08/25 11:50pm 1.3ft 5s 4s 7
mph
1008.2mb 85f 84f
10:50pm 1.3ft 5s 4s 4 7 mph 1007.6mb 86f 85f
9:50pm 1.3ft 5s 4s 7 9 mph 1007.5mb 86f 84f
8:50pm 1.3ft 7s 4s 7 9 mph 1007.6mb 86f 84f
7:50pm 1.3ft 5s 4s 4 7 mph 1007.7mb 86f 84f
6:50pm 1.3ft 5s 4s 7
mph
1008.2mb 85f 84f
5:50pm 1.3ft 5s 4s 7
mph
1009mb 85f 84f
4:50pm 1.6ft 5s 5s 7
mph
1009.4mb 85f 84f
3:50pm 1.6ft 5s 5s 4 7 mph 1009.6mb 85f 83f
2:50pm 1.6ft 6s 5s 7
mph
1009.5mb 84f 83f
1:50pm 2ft 5s 5s 7 9 mph 1009.4mb 84f 83f
12:50pm 2ft 6s 5s 7 9 mph 1008.8mb 84f 83f
11:50am 1.6ft 6s 5s 7 9 mph 1008.2mb 84f 83f
10:50am 2ft 6s 5s 7 9 mph 1007.7mb 84f 83f
9:50am 1.6ft 6s 5s 7 9 mph 1007.7mb 83f 83f
8:50am 1.6ft 6s 4s 9
mph
1007.8mb 84f 83f
7:50am 1.6ft 5s 4s 9 11 mph 1007.8mb 84f 83f
6:50am 1.6ft 5s 4s 9 11 mph 1008.5mb 84f 83f
5:50am 1.6ft 4s 4s 4 7 mph 1009mb 84f 83f
4:50am 1.6ft 5s 4s 7
mph
1009.6mb 84f 83f
3:50am 2ft 5s 4s 7
mph
1009.8mb 84f 83f
2:50am 2ft 5s 5s 4 7 mph 1009.7mb 84f 84f
1:50am 2ft 5s 4s 7 9 mph 1009mb 84f 84f
12:50am 2ft 5s 5s 9
mph
1008.5mb 84f 84f
Sun 08/24 11:50pm 2ft 6s 5s 9
mph
1007.7mb 84f 84f
10:50pm 2ft 5s 5s 9 11 mph 1007.8mb 85f 84f
9:50pm 2ft 5s 5s 9 11 mph 1007.5mb 85f 84f
8:50pm 2.5ft 6s 5s 9 11 mph 1007.8mb 85f 84f
7:50pm 2.5ft 6s 5s 9 11 mph 1008.4mb 85f 84f
6:50pm 2.5ft 6s 5s 9 11 mph 1009mb 84f 84f
5:50pm 2.5ft 6s 5s 9 11 mph 1009.5mb 84f 83f
4:50pm 2.5ft 6s 5s 7 9 mph 1009.9mb 84f 83f
3:50pm 2.5ft 6s 5s 9 11 mph 1010mb 84f 83f
2:50pm 2.5ft 6s 5s 9
mph
1009.8mb 84f 83f
1:50pm 2.5ft 6s 5s 9 11 mph 1009.5mb 84f 83f
12:50pm 2.5ft 6s 5s 9
mph
1008.9mb 83f 83f
11:50am 2.5ft 7s 5s 9 11 mph 1008.3mb 84f 83f
10:50am 2.5ft 6s 5s 7 9 mph 1008.4mb 84f 83f
9:50am 3ft 6s 5s 9 11 mph 1008.4mb 84f 83f
8:50am 2.5ft 7s 5s 9
mph
1008.3mb 84f 83f
7:50am 3ft 6s 5s 9
mph
1008.7mb 84f 83f
6:50am 3.5ft 7s 6s 7 9 mph 1009.5mb 84f 83f
5:50am 2.5ft 7s 5s 7 11 mph 1010.1mb 84f 83f
4:50am 2.5ft 7s 5s 9
mph
1010.7mb 84f 83f
3:50am 2.5ft 7s 5s 9 11 mph 1010.8mb 84f 84f
2:50am 2.5ft 7s 4s 11 13 mph 1010.2mb 84f 84f
1:50am 2.5ft 7s 5s 13 16 mph 1009.6mb 84f 84f
12:50am 2ft 7s 5s 13 18 mph 1009.5mb 84f 82f
Sat 08/23 11:50pm 2.5ft 7s 5s 11
mph
1009mb 84f 84f
10:50pm 2.5ft 7s 5s 9 11 mph 1008.9mb 84f 84f
9:50pm 2.5ft 7s 5s 11
mph
1008.9mb 84f 84f
8:50pm 2.5ft 8s 5s 9 11 mph 1009.3mb 85f 84f
7:50pm 2.5ft 7s 5s 9 11 mph 1010.1mb 85f 84f
6:50pm 2.5ft 5s 5s 9 11 mph 1010.9mb 85f 84f
5:50pm 2.5ft 6s 5s 9 11 mph 1011.5mb 85f 84f
4:50pm 2.5ft 7s 5s 11 13 mph 1011.8mb 84f 83f
3:50pm 2.5ft 5s 5s 11 13 mph 1011.8mb 84f 83f
2:50pm 2.5ft 7s 5s 9 11 mph 1011.5mb 84f 83f
1:50pm 2.5ft 7s 5s 11
mph
1011.5mb 84f 83f
12:50pm 2.5ft 7s 5s 9 11 mph 1011mb 84f 83f
11:50am 2.5ft 7s 5s 9 11 mph 1010.6mb 84f 83f